Time;durP1;ratioP1;P1;durP2;ratioP2;P2;SDS_P1;SDS_P2;PMS_P1;PMS_P2;Temp;Humidity;BMP_temperature;BMP_pressure;BME280_temperature;BME280_humidity;BME280_pressure;Samples;Min_cycle;Max_cycle;Signal;HPM_P1;HPM_P2
2024/02/08 00:00:32;;;;;;;1999.90;999.90;;;19.90;99.90;;;;;;5112898;28;20031;-77
2024/02/08 00:02:59;;;;;;;1999.90;999.90;;;19.90;99.90;;;;;;5111870;28;20036;-78
2024/02/08 00:05:27;;;;;;;1999.90;999.90;;;19.90;99.90;;;;;;5111442;28;20047;-80
2024/02/08 00:07:53;;;;;;;1999.90;999.90;;;19.90;99.90;;;;;;5113340;28;20034;-81
2024/02/08 00:10:18;;;;;;;1999.90;999.90;;;19.80;99.90;;;;;;5111500;28;20024;-81
2024/02/08 00:12:44;;;;;;;1999.90;999.90;;;19.70;99.90;;;;;;5111180;28;20032;-77
2024/02/08 00:15:10;;;;;;;1999.90;999.90;;;19.60;99.90;;;;;;5092872;28;20074;-77
2024/02/08 00:17:35;;;;;;;1999.90;999.90;;;19.50;99.90;;;;;;5092527;28;20032;-77
2024/02/08 00:20:02;;;;;;;1999.90;999.90;;;19.50;99.90;;;;;;5092890;28;20458;-77
2024/02/08 00:22:27;;;;;;;1999.90;999.90;;;19.50;99.90;;;;;;5091393;28;20031;-77
2024/02/08 00:24:55;;;;;;;1999.90;999.90;;;19.50;99.90;;;;;;5091309;28;20544;-77
2024/02/08 00:27:21;;;;;;;1999.90;999.90;;;19.50;99.90;;;;;;5098042;28;20076;-77
2024/02/08 00:29:47;;;;;;;1999.90;999.90;;;19.40;99.90;;;;;;5113046;28;20429;-80
2024/02/08 00:32:12;;;;;;;1999.90;999.90;;;19.40;99.90;;;;;;5108969;28;20024;-77
2024/02/08 00:34:40;;;;;;;1999.90;999.90;;;19.40;99.90;;;;;;5096858;28;20034;-77
2024/02/08 00:37:07;;;;;;;1999.90;999.90;;;19.40;99.90;;;;;;5113183;28;20051;-77
2024/02/08 00:39:33;;;;;;;1999.90;999.90;;;19.40;99.90;;;;;;5112775;28;20028;-76
2024/02/08 00:41:59;;;;;;;1999.90;999.90;;;19.40;99.90;;;;;;5111663;28;20020;-81
2024/02/08 00:44:27;;;;;;;1999.90;999.90;;;19.40;99.90;;;;;;5111455;28;20028;-77
2024/02/08 00:46:56;;;;;;;1999.90;999.90;;;19.30;99.90;;;;;;5112895;28;20094;-77
2024/02/08 00:49:21;;;;;;;1999.90;999.90;;;19.30;99.90;;;;;;5112696;28;20023;-77
2024/02/08 00:51:50;;;;;;;1999.90;999.90;;;19.20;99.90;;;;;;5112759;28;20149;-77
2024/02/08 00:54:16;;;;;;;1999.90;999.90;;;19.20;99.90;;;;;;5111413;28;20394;-77
2024/02/08 00:56:42;;;;;;;1999.90;999.90;;;19.10;99.90;;;;;;5111338;28;20016;-77
2024/02/08 00:59:11;;;;;;;1999.90;999.90;;;19.10;99.90;;;;;;5111587;28;20027;-77
2024/02/08 01:01:40;;;;;;;1999.90;999.90;;;19.20;99.90;;;;;;5104697;28;20024;-77
2024/02/08 01:04:06;;;;;;;1999.90;999.90;;;19.20;99.90;;;;;;5113895;28;20012;-77
2024/02/08 01:06:32;;;;;;;1999.90;999.90;;;19.30;99.90;;;;;;5093497;28;20517;-77
2024/02/08 01:09:01;;;;;;;1999.90;999.90;;;19.20;99.90;;;;;;5092316;28;20024;-77
2024/02/08 01:11:26;;;;;;;1999.90;999.90;;;19.20;99.90;;;;;;5090954;28;20020;-77
2024/02/08 01:13:52;;;;;;;1999.90;999.90;;;19.30;99.90;;;;;;5095842;28;20028;-77
2024/02/08 01:16:18;;;;;;;1999.90;999.90;;;19.40;99.90;;;;;;5094615;28;20085;-82
2024/02/08 01:18:43;;;;;;;1999.90;999.90;;;19.40;99.90;;;;;;5095622;28;20372;-76
2024/02/08 01:21:10;;;;;;;1999.90;999.90;;;19.40;99.90;;;;;;5094508;28;20025;-82
2024/02/08 01:23:36;;;;;;;1999.90;999.90;;;19.50;99.90;;;;;;5094510;28;20165;-77
2024/02/08 01:26:04;;;;;;;1999.90;999.90;;;19.60;99.90;;;;;;5094474;28;20114;-77
2024/02/08 01:28:30;;;;;;;1999.90;999.90;;;19.70;99.90;;;;;;5095459;28;20434;-77
2024/02/08 01:30:55;;;;;;;1999.90;999.90;;;19.70;99.90;;;;;;5094342;28;20060;-77
2024/02/08 01:33:21;;;;;;;1999.90;999.90;;;19.70;99.90;;;;;;5095443;28;20030;-77
2024/02/08 01:35:47;;;;;;;1999.90;999.90;;;19.70;99.90;;;;;;5109472;28;20521;-77
2024/02/08 01:38:16;;;;;;;1999.90;999.90;;;19.70;99.90;;;;;;5115941;28;20039;-76
2024/02/08 01:40:45;;;;;;;1999.90;999.90;;;19.70;99.90;;;;;;5116047;28;20047;-77
2024/02/08 01:43:11;;;;;;;1999.90;999.90;;;19.70;99.90;;;;;;5114057;28;20031;-77
2024/02/08 01:45:41;;;;;;;1999.90;999.90;;;19.70;99.90;;;;;;5115651;28;20030;-77
2024/02/08 01:48:10;;;;;;;1999.90;999.90;;;19.70;99.90;;;;;;5115827;28;20020;-77
2024/02/08 01:51:00;;;;;;;1999.90;999.90;;;19.70;99.90;;;;;;5114362;28;20020;-77
2024/02/08 01:53:29;;;;;;;1999.90;999.90;;;19.80;99.90;;;;;;5114906;28;20535;-77
2024/02/08 01:55:59;;;;;;;1999.90;999.90;;;19.80;99.90;;;;;;5114221;28;20023;-76
2024/02/08 01:58:26;;;;;;;1999.90;999.90;;;19.90;99.90;;;;;;5115630;28;20072;-77
2024/02/08 02:00:55;;;;;;;1999.90;999.90;;;19.80;99.90;;;;;;5115215;28;20023;-81
2024/02/08 02:03:23;;;;;;;1999.90;999.90;;;19.80;99.90;;;;;;5113992;28;20028;-77
2024/02/08 02:05:49;;;;;;;1999.90;999.90;;;19.80;99.90;;;;;;5113704;28;20044;-77
2024/02/08 02:08:24;;;;;;;1999.90;999.90;;;19.80;99.90;;;;;;5113597;28;20406;-81
2024/02/08 02:11:05;;;;;;;1999.90;999.90;;;19.70;99.90;;;;;;5115411;28;20031;-77
2024/02/08 02:13:36;;;;;;;1999.90;999.90;;;19.80;99.90;;;;;;5113775;28;20020;-76
2024/02/08 02:16:02;;;;;;;1999.90;999.90;;;19.80;99.90;;;;;;5101653;28;20111;-76
2024/02/08 02:18:28;;;;;;;1999.90;999.90;;;19.70;99.90;;;;;;5094727;28;20491;-77
2024/02/08 02:20:54;;;;;;;1999.90;999.90;;;19.70;99.90;;;;;;5094539;28;20111;-76
2024/02/08 02:23:20;;;;;;;1999.90;999.90;;;19.70;99.90;;;;;;5093356;28;20130;-76
2024/02/08 02:25:51;;;;;;;1999.90;999.90;;;19.50;99.90;;;;;;5093014;28;20143;-76
2024/02/08 02:28:18;;;;;;;1999.90;999.90;;;19.40;99.90;;;;;;5094722;28;20020;-76
2024/02/08 02:30:48;;;;;;;1999.90;999.90;;;19.30;99.90;;;;;;5093120;28;20024;-77
2024/02/08 02:33:16;;;;;;;1999.90;999.90;;;19.20;99.90;;;;;;5104346;28;20031;-81
2024/02/08 02:35:48;;;;;;;1999.90;999.90;;;19.20;99.90;;;;;;5114325;28;20023;-76
2024/02/08 02:38:17;;;;;;;1999.90;999.90;;;19.10;99.90;;;;;;5114916;28;20027;-77
2024/02/08 02:40:46;;;;;;;1999.90;999.90;;;19.00;99.90;;;;;;5113278;28;20027;-77
2024/02/08 02:43:13;;;;;;;1999.90;999.90;;;19.00;99.90;;;;;;5113203;28;20111;-77
2024/02/08 02:45:39;;;;;;;1999.90;999.90;;;18.90;99.90;;;;;;5113097;28;20114;-77
2024/02/08 02:48:05;;;;;;;1999.90;999.90;;;18.80;99.90;;;;;;5114387;28;20026;-81
2024/02/08 02:50:32;;;;;;;1999.90;999.90;;;18.80;99.90;;;;;;5113051;28;20032;-76
2024/02/08 02:52:58;;;;;;;1999.90;999.90;;;18.70;99.90;;;;;;5114609;28;20474;-77
2024/02/08 02:55:24;;;;;;;1999.90;999.90;;;18.60;99.90;;;;;;5113161;28;20036;-76
2024/02/08 02:57:49;;;;;;;1999.90;999.90;;;18.50;99.90;;;;;;5112933;28;20114;-76
2024/02/08 03:00:24;;;;;;;1999.90;999.90;;;18.40;99.90;;;;;;5114386;28;20027;-76
2024/02/08 03:02:52;;;;;;;1999.90;999.90;;;18.30;99.90;;;;;;5114348;28;20024;-76
2024/02/08 03:05:20;;;;;;;1999.90;999.90;;;18.20;99.90;;;;;;5112473;28;20055;-81
2024/02/08 03:07:48;;;;;;;1999.90;999.90;;;18.10;99.90;;;;;;5112853;28;20102;-81
2024/02/08 03:10:14;;;;;;;1999.90;999.90;;;18.00;99.90;;;;;;5113907;27;20020;-76
2024/02/08 03:12:40;;;;;;;1999.90;999.90;;;17.80;99.90;;;;;;5112593;28;20543;-81
2024/02/08 03:15:09;;;;;;;1999.90;999.90;;;17.80;99.90;;;;;;5112660;28;20401;-80
2024/02/08 03:17:38;;;;;;;1999.90;999.90;;;17.70;99.90;;;;;;5111757;28;20020;-80
2024/02/08 03:20:05;;;;;;;1999.90;999.90;;;17.60;99.90;;;;;;5113945;28;20083;-76
2024/02/08 03:22:34;;;;;;;1999.90;999.90;;;17.40;99.90;;;;;;5112558;28;20020;-76
2024/02/08 03:25:05;;;;;;;1999.90;999.90;;;17.30;99.90;;;;;;5113579;28;20474;-81
2024/02/08 03:27:34;;;;;;;1999.90;999.90;;;17.20;99.90;;;;;;5104097;28;20080;-76
2024/02/08 03:30:02;;;;;;;1999.90;999.90;;;17.10;99.90;;;;;;5091975;28;20028;-76
2024/02/08 03:32:31;;;;;;;1999.90;999.90;;;17.00;99.90;;;;;;5102192;28;20110;-80
2024/02/08 03:34:56;;;;;;;1999.90;999.90;;;16.90;99.90;;;;;;5119140;28;20024;-76
2024/02/08 03:37:23;;;;;;;1999.90;999.90;;;16.80;99.90;;;;;;5102978;28;20007;-80
2024/02/08 03:39:49;;;;;;;1999.90;999.90;;;16.70;99.90;;;;;;5127589;28;20466;-76
2024/02/08 03:42:16;;;;;;;1999.90;999.90;;;16.60;99.90;;;;;;5119228;28;20019;-80
2024/02/08 03:44:43;;;;;;;1999.90;999.90;;;16.50;99.90;;;;;;5118992;28;20018;-77
2024/02/08 03:47:09;;;;;;;1999.90;999.90;;;16.40;99.90;;;;;;5108054;28;20440;-76
2024/02/08 03:49:35;;;;;;;1999.90;999.90;;;16.30;99.90;;;;;;5092795;28;20016;-76
2024/02/08 03:52:02;;;;;;;1999.90;999.90;;;16.20;99.90;;;;;;5093093;28;20435;-81
2024/02/08 03:54:30;;;;;;;1999.90;999.90;;;16.10;99.90;;;;;;5108720;28;20061;-76
2024/02/08 03:57:05;;;;;;;1999.90;999.90;;;16.00;99.90;;;;;;5092905;28;20052;-81
2024/02/08 03:59:32;;;;;;;1999.90;999.90;;;16.00;99.90;;;;;;5108580;28;20020;-76
2024/02/08 04:02:05;;;;;;;1999.90;999.90;;;16.00;99.90;;;;;;5091860;28;20050;-80
2024/02/08 04:04:59;;;;;;;1999.90;999.90;;;15.90;99.90;;;;;;5092439;28;20052;-76
2024/02/08 04:07:45;;;;;;;;;;;15.80;99.90;;;;;;5091968;28;20028;-80
2024/02/08 04:53:30;;;;;;;1999.90;999.90;;;15.70;99.90;;;;;;5092946;28;19950;-81
2024/02/08 04:54:32;;;;;;;1999.90;999.90;;;15.20;99.90;;;;;;5116874;28;20574;-76
2024/02/08 04:56:59;;;;;;;1999.90;999.90;;;15.10;99.90;;;;;;5116616;28;20081;-80
2024/02/08 04:59:26;;;;;;;1999.90;999.90;;;15.00;99.90;;;;;;5116589;28;20023;-76
2024/02/08 05:01:53;;;;;;;1999.90;999.90;;;15.00;99.90;;;;;;5116562;28;20023;-76
2024/02/08 05:04:20;;;;;;;1999.90;999.90;;;15.00;99.90;;;;;;5116118;28;20450;-76
2024/02/08 05:06:47;;;;;;;1999.90;999.90;;;14.90;99.90;;;;;;5115389;28;20020;-76
2024/02/08 05:09:15;;;;;;;1999.90;999.90;;;15.00;99.90;;;;;;5115103;28;20062;-76
2024/02/08 05:11:43;;;;;;;1999.90;999.90;;;14.90;99.90;;;;;;5115076;28;20024;-76
2024/02/08 05:14:09;;;;;;;1999.90;999.90;;;14.90;99.90;;;;;;5114613;28;20107;-76
2024/02/08 05:16:37;;;;;;;1999.90;999.90;;;14.90;99.90;;;;;;5116111;28;20035;-76
2024/02/08 05:19:09;;;;;;;1999.90;999.90;;;14.80;99.90;;;;;;5116216;28;20436;-76
2024/02/08 05:21:40;;;;;;;1999.90;999.90;;;14.80;99.90;;;;;;5114835;28;20024;-76
2024/02/08 05:24:07;;;;;;;1999.90;999.90;;;14.70;99.90;;;;;;5115034;28;20034;-76
2024/02/08 05:26:33;;;;;;;1999.90;999.90;;;14.60;99.90;;;;;;5116034;28;20027;-76
2024/02/08 05:28:58;;;;;;;1999.90;999.90;;;14.60;99.90;;;;;;5095509;28;20034;-80
2024/02/08 05:31:27;;;;;;;1999.90;999.90;;;14.50;99.90;;;;;;5095765;28;20073;-76
2024/02/08 05:33:56;;;;;;;1999.90;999.90;;;14.40;99.90;;;;;;5112408;28;20390;-76
2024/02/08 05:36:23;;;;;;;1999.90;999.90;;;14.40;99.90;;;;;;5111081;28;20024;-80
2024/02/08 05:38:52;;;;;;;1999.90;999.90;;;14.40;99.90;;;;;;5095415;28;20027;-80
2024/02/08 05:41:21;;;;;;;1999.90;999.90;;;14.30;99.90;;;;;;5095590;28;20031;-76
2024/02/08 05:43:48;;;;;;;1999.90;999.90;;;14.30;99.90;;;;;;5094091;28;20035;-76
2024/02/08 05:46:24;;;;;;;1999.90;999.90;;;14.20;99.90;;;;;;5096821;28;20020;-76
2024/02/08 05:49:03;;;;;;;1999.90;999.90;;;14.20;99.90;;;;;;5114084;28;20024;-76
2024/02/08 05:51:33;;;;;;;1999.90;999.90;;;14.10;99.90;;;;;;5112717;28;20068;-80
2024/02/08 05:54:02;;;;;;;1999.90;999.90;;;14.10;99.90;;;;;;5115258;28;20022;-80
2024/02/08 05:56:30;;;;;;;1999.90;999.90;;;14.10;99.90;;;;;;5115572;27;20028;-76
2024/02/08 05:59:01;;;;;;;1999.90;999.90;;;14.10;99.90;;;;;;5107306;28;20031;-76
2024/02/08 06:01:31;;;;;;;1999.90;999.90;;;14.00;99.90;;;;;;5101210;28;20023;-76
2024/02/08 06:04:01;;;;;;;1999.90;999.90;;;14.00;99.90;;;;;;5115084;28;20114;-81
2024/02/08 06:06:33;;;;;;;1999.90;999.90;;;14.00;99.90;;;;;;5113009;28;20051;-81
2024/02/08 06:09:08;;;;;;;1999.90;999.90;;;14.00;99.90;;;;;;5115184;28;20016;-76
2024/02/08 06:11:37;;;;;;;1999.90;999.90;;;14.10;99.90;;;;;;5115001;28;20030;-76
2024/02/08 06:14:22;;;;;;;1999.90;999.90;;;14.10;99.90;;;;;;5106287;28;20020;-76
2024/02/08 06:16:53;;;;;;;1999.90;999.90;;;14.10;99.90;;;;;;5094810;28;20229;-76
2024/02/08 06:19:21;;;;;;;1999.90;999.90;;;14.10;99.90;;;;;;5093163;28;20063;-80
2024/02/08 06:21:57;;;;;;;1999.90;999.90;;;14.10;99.90;;;;;;5093144;28;20094;-76
2024/02/08 06:27:01;;;;;;;1999.90;999.90;;;14.10;99.90;;;;;;5096770;28;20031;-82
2024/02/08 06:29:38;;;;;;;1999.90;999.90;;;14.10;99.90;;;;;;5103140;28;20114;-77
2024/02/08 06:35:07;;;;;;;1999.90;999.90;;;14.00;99.90;;;;;;5108182;28;20039;-81
2024/02/08 06:37:44;;;;;;;1999.90;999.90;;;14.00;99.90;;;;;;5114264;27;20031;-76
2024/02/08 06:40:21;;;;;;;1999.90;999.90;;;14.00;99.90;;;;;;5112697;28;20031;-76
2024/02/08 07:37:25;;;;;;;1999.90;999.90;;;14.10;99.90;;;;;;5098806;28;20069;-80
2024/02/08 07:39:54;;;;;;;1999.90;999.90;;;14.00;99.90;;;;;;5095100;28;20027;-80
2024/02/08 07:42:29;;;;;;;1999.90;999.90;;;13.90;99.90;;;;;;5105864;27;20026;-81
2024/02/08 07:45:07;;;;;;;1999.90;999.90;;;13.90;99.90;;;;;;5101050;28;20040;-80
2024/02/08 07:47:33;;;;;;;1999.90;999.90;;;13.90;99.90;;;;;;5107110;28;20560;-80
2024/02/08 07:50:08;;;;;;;1999.90;999.90;;;13.90;99.90;;;;;;5111414;28;20429;-78
2024/02/08 07:52:45;;;;;;;1999.90;999.90;;;13.80;99.90;;;;;;5107308;28;20452;-76
2024/02/08 07:55:14;;;;;;;1999.90;999.90;;;13.70;99.90;;;;;;5091857;28;20027;-76
2024/02/08 07:57:48;;;;;;;1999.90;999.90;;;13.70;99.90;;;;;;5099811;28;20081;-78
2024/02/08 08:03:00;;;;;;;1999.90;999.90;;;13.60;99.90;;;;;;5102064;28;20026;-76
2024/02/08 08:05:31;;;;;;;1999.90;999.90;;;13.60;99.90;;;;;;5104901;28;20048;-75
2024/02/08 08:08:02;;;;;;;1999.90;999.90;;;13.60;99.90;;;;;;5104561;28;20044;-76
2024/02/08 08:10:33;;;;;;;1999.90;999.90;;;13.60;99.90;;;;;;5102512;28;20496;-76
2024/02/08 08:13:06;;;;;;;1999.90;999.90;;;13.50;99.90;;;;;;5101606;28;20181;-75
2024/02/08 08:15:49;;;;;;;1999.90;999.90;;;13.50;99.90;;;;;;5087288;28;20168;-75
2024/02/08 08:18:23;;;;;;;1999.90;999.90;;;13.40;99.90;;;;;;5109211;28;20106;-75
2024/02/08 08:20:57;;;;;;;1999.90;999.90;;;13.40;99.90;;;;;;5107008;28;20063;-77
2024/02/08 08:23:27;;;;;;;1999.90;999.90;;;13.40;99.90;;;;;;5110709;28;20039;-74
2024/02/08 08:26:05;;;;;;;1999.90;999.90;;;13.60;99.90;;;;;;5099489;28;20031;-77
2024/02/08 08:28:39;;;;;;;1999.90;999.90;;;13.50;99.90;;;;;;5104666;28;20042;-76
2024/02/08 08:31:35;;;;;;;1999.90;999.90;;;13.40;99.90;;;;;;5107878;28;20115;-75
2024/02/08 08:35:15;;;;;;;1999.90;999.90;;;13.40;99.90;;;;;;5093231;28;20104;-74
2024/02/08 08:36:57;;;;;;;1999.90;999.90;;;13.30;99.90;;;;;;5107817;28;20047;-74
2024/02/08 08:42:08;;;;;;;1999.90;999.90;;;13.40;99.90;;;;;;5109898;28;20402;-75
2024/02/08 08:44:34;;;;;;;1999.90;999.90;;;13.40;99.90;;;;;;5099560;28;20028;-75
2024/02/08 08:47:01;;;;;;;1999.90;999.90;;;13.40;99.90;;;;;;5111322;28;20060;-75
2024/02/08 08:49:29;;;;;;;1999.90;999.90;;;13.40;99.90;;;;;;5103836;28;20105;-74
2024/02/08 08:51:58;;;;;;;1999.90;999.90;;;13.40;99.90;;;;;;5112542;28;20043;-73
2024/02/08 08:54:29;;;;;;;1999.90;999.90;;;13.30;99.90;;;;;;5113577;28;20348;-74
2024/02/08 08:56:56;;;;;;;1999.90;999.90;;;13.40;99.90;;;;;;5114255;28;20035;-75
2024/02/08 08:59:25;;;;;;;1999.90;999.90;;;13.40;99.90;;;;;;5107636;28;20021;-75
2024/02/08 09:01:52;;;;;;;1999.90;999.90;;;13.40;99.90;;;;;;5101045;28;20559;-75
2024/02/08 09:04:32;;;;;;;1999.90;999.90;;;13.30;99.90;;;;;;5108512;28;20024;-75
2024/02/08 09:07:08;;;;;;;1999.90;999.90;;;13.30;99.90;;;;;;5131119;28;20020;-74
2024/02/08 09:12:28;;;;;;;1999.90;999.90;;;13.40;99.90;;;;;;5113932;28;20478;-74
2024/02/08 09:14:54;;;;;;;1999.90;999.90;;;13.40;99.90;;;;;;5098785;28;20026;-74
2024/02/08 09:17:25;;;;;;;1999.90;999.90;;;13.30;99.90;;;;;;5108622;28;20110;-74
2024/02/08 09:19:59;;;;;;;1999.90;999.90;;;13.30;99.90;;;;;;5107901;28;20027;-74
2024/02/08 09:22:24;;;;;;;1999.90;999.90;;;13.30;99.90;;;;;;5093875;28;20050;-74
2024/02/08 09:24:50;;;;;;;1999.90;999.90;;;13.30;99.90;;;;;;5112462;28;20023;-74
2024/02/08 09:27:16;;;;;;;1999.90;999.90;;;13.30;99.90;;;;;;5096166;27;20035;-75
2024/02/08 09:29:56;;;;;;;1999.90;999.90;;;13.20;99.90;;;;;;5089993;28;20023;-74
2024/02/08 09:35:11;;;;;;;1999.90;999.90;;;13.10;99.90;;;;;;5111205;27;20038;-74
2024/02/08 09:37:47;;;;;;;1999.90;999.90;;;13.10;99.90;;;;;;5105825;28;20024;-75
2024/02/08 09:40:36;;;;;;;1999.90;999.90;;;13.10;99.90;;;;;;5104264;28;20027;-81
2024/02/08 09:43:16;;;;;;;1999.90;999.90;;;13.10;99.90;;;;;;5089936;28;20031;-75
2024/02/08 09:45:46;;;;;;;1999.90;999.90;;;13.10;99.90;;;;;;5104657;28;20040;-76
2024/02/08 09:48:25;;;;;;;1999.90;999.90;;;13.10;99.90;;;;;;5113468;28;20077;-76
2024/02/08 09:50:59;;;;;;;1999.90;999.90;;;13.10;99.90;;;;;;5108270;28;20028;-77
2024/02/08 09:53:30;;;;;;;1999.90;999.90;;;13.00;99.90;;;;;;5110596;28;20016;-78
2024/02/08 09:56:15;;;;;;;1999.90;999.90;;;13.00;99.90;;;;;;5087388;28;20104;-79
2024/02/08 09:58:46;;;;;;;1999.90;999.90;;;13.00;99.90;;;;;;5106260;28;20110;-76
2024/02/08 10:01:21;;;;;;;1999.90;999.90;;;13.00;99.90;;;;;;5100795;27;20071;-77
2024/02/08 10:04:04;;;;;;;1999.90;999.90;;;12.90;99.90;;;;;;5107327;28;20028;-74
2024/02/08 10:09:35;;;;;;;1999.90;999.90;;;12.90;99.90;;;;;;5104170;28;20046;-77
2024/02/08 10:12:08;;;;;;;1999.90;999.90;;;12.90;99.90;;;;;;5107092;27;20077;-75
2024/02/08 10:14:41;;;;;;;;;;;12.80;99.90;;;;;;5099829;28;20016;-76
2024/02/08 10:17:27;;;;;;;;;;;12.80;99.90;;;;;;5108296;28;19950;-75
2024/02/08 10:28:22;;;;;;;1999.90;999.90;;;12.90;99.90;;;;;;5108342;28;20097;-77
2024/02/08 10:30:59;;;;;;;1999.90;999.90;;;12.90;99.90;;;;;;5084230;28;20483;-77
2024/02/08 10:33:31;;;;;;;1999.90;999.90;;;12.90;99.90;;;;;;5084109;28;20039;-77
2024/02/08 10:36:07;;;;;;;1999.90;999.90;;;12.80;99.90;;;;;;5085634;28;20027;-75
2024/02/08 10:38:53;;;;;;;1999.90;999.90;;;12.90;99.90;;;;;;5084001;28;20040;-74
2024/02/08 10:41:27;;;;;;;1999.90;999.90;;;12.90;99.90;;;;;;5105168;28;20024;-73
2024/02/08 10:43:57;;;;;;;1999.90;999.90;;;12.90;99.90;;;;;;5125171;28;20056;-73
2024/02/08 10:46:34;;;;;;;1999.90;999.90;;;13.00;99.90;;;;;;5103012;28;20127;-74
2024/02/08 10:49:08;;;;;;;1999.90;999.90;;;13.00;99.90;;;;;;5086645;28;20039;-74
2024/02/08 10:51:43;;;;;;;1999.90;999.90;;;13.10;99.90;;;;;;5088632;28;20024;-75
2024/02/08 10:54:23;;;;;;;1999.90;999.90;;;13.20;99.90;;;;;;5109312;28;20035;-79
2024/02/08 10:57:08;;;;;;;1999.90;999.90;;;13.30;99.90;;;;;;5102768;28;20039;-78
2024/02/08 10:59:55;;;;;;;1999.90;999.90;;;13.40;99.90;;;;;;5104944;28;20035;-75
2024/02/08 11:02:32;;;;;;;1999.90;999.90;;;13.40;99.90;;;;;;5092254;28;20490;-79
2024/02/08 11:07:58;;;;;;;1999.90;999.90;;;13.40;99.90;;;;;;5069946;28;20031;-75
2024/02/08 11:10:31;;;;;;;1999.90;999.90;;;13.40;99.90;;;;;;5095258;27;20031;-77
2024/02/08 11:13:02;;;;;;;1999.90;999.90;;;13.40;99.90;;;;;;5108873;28;20031;-77
2024/02/08 11:15:30;;;;;;;1999.90;999.90;;;13.40;99.90;;;;;;5125722;28;20022;-76
2024/02/08 11:17:58;;;;;;;1999.90;999.90;;;13.30;99.90;;;;;;5111659;28;20386;-74
2024/02/08 11:20:43;;;;;;;1999.90;999.90;;;13.30;99.90;;;;;;5100428;28;20023;-77
2024/02/08 11:23:11;;;;;;;1999.90;999.90;;;13.30;99.90;;;;;;5106391;28;20026;-75
2024/02/08 11:25:44;;;;;;;1999.90;999.90;;;13.30;99.90;;;;;;5081596;28;20083;-74
2024/02/08 11:28:24;;;;;;;1999.90;999.90;;;13.30;99.90;;;;;;5105860;27;20524;-74
2024/02/08 11:30:52;;;;;;;1999.90;999.90;;;13.40;99.90;;;;;;5096520;28;20504;-75
2024/02/08 11:33:30;;;;;;;1999.90;999.90;;;13.40;99.90;;;;;;5115931;27;20019;-77
2024/02/08 11:36:11;;;;;;;1999.90;999.90;;;13.50;99.90;;;;;;5095339;28;20035;-75
2024/02/08 11:38:40;;;;;;;1999.90;999.90;;;13.50;99.90;;;;;;5101839;28;20487;-78
2024/02/08 11:41:10;;;;;;;1999.90;999.90;;;13.50;99.90;;;;;;5088881;28;20032;-77
2024/02/08 11:43:46;;;;;;;1999.90;999.90;;;13.40;99.90;;;;;;5091274;28;20030;-76
2024/02/08 11:46:22;;;;;;;1999.90;999.90;;;13.40;99.90;;;;;;5083054;28;20098;-75
2024/02/08 11:48:49;;;;;;;1999.90;999.90;;;13.40;99.90;;;;;;5083566;28;20032;-78
2024/02/08 11:51:22;;;;;;;1999.90;999.90;;;13.30;99.90;;;;;;5103803;28;20031;-77
2024/02/08 11:53:51;;;;;;;1999.90;999.90;;;13.30;99.90;;;;;;5107818;27;20441;-77
2024/02/08 11:56:20;;;;;;;1999.90;999.90;;;13.30;99.90;;;;;;5101421;28;20495;-78
2024/02/08 11:58:49;;;;;;;1999.90;999.90;;;13.30;99.90;;;;;;5107840;28;20020;-75
2024/02/08 12:01:17;;;;;;;1999.90;999.90;;;13.40;99.90;;;;;;5098459;28;20114;-76
2024/02/08 12:03:46;;;;;;;1999.90;999.90;;;13.40;99.90;;;;;;5109785;28;20062;-77
2024/02/08 12:06:18;;;;;;;1999.90;999.90;;;13.50;99.90;;;;;;5085186;28;20155;-75
2024/02/08 12:08:57;;;;;;;1999.90;999.90;;;13.40;99.90;;;;;;5089345;28;20060;-77
2024/02/08 12:11:32;;;;;;;1999.90;999.90;;;13.40;99.90;;;;;;5103959;28;20039;-75
2024/02/08 12:14:02;;;;;;;1999.90;999.90;;;13.40;99.90;;;;;;5094494;28;20090;-75
2024/02/08 12:16:29;;;;;;;1999.90;999.90;;;13.30;99.90;;;;;;5101605;28;20027;-74
2024/02/08 12:19:05;;;;;;;1999.90;999.90;;;13.30;99.90;;;;;;5124834;28;20016;-75
2024/02/08 12:21:35;;;;;;;1999.90;999.90;;;13.30;99.90;;;;;;5084086;28;20028;-75
2024/02/08 12:24:04;;;;;;;1999.90;999.90;;;13.30;99.90;;;;;;5098505;28;20130;-74
2024/02/08 12:26:33;;;;;;;1999.90;999.90;;;13.30;99.90;;;;;;5096537;28;20372;-76
2024/02/08 12:29:03;;;;;;;1999.90;999.90;;;13.40;99.90;;;;;;5094918;28;20036;-75
2024/02/08 12:31:32;;;;;;;1999.90;999.90;;;13.40;99.90;;;;;;5107897;28;20028;-75
2024/02/08 12:34:03;;;;;;;1999.90;999.90;;;13.40;99.90;;;;;;5090564;28;20744;-74
2024/02/08 12:36:31;;;;;;;1999.90;999.90;;;13.40;99.90;;;;;;5097220;28;20040;-75
2024/02/08 12:39:00;;;;;;;1999.90;999.90;;;13.40;99.90;;;;;;5086748;28;20034;-77
2024/02/08 12:41:29;;;;;;;1999.90;999.90;;;13.40;99.90;;;;;;5083704;28;20031;-75
2024/02/08 12:43:56;;;;;;;1999.90;999.90;;;13.30;99.90;;;;;;5086379;28;20027;-73
2024/02/08 12:46:22;;;;;;;1999.90;999.90;;;13.30;99.90;;;;;;5098731;28;20536;-77
2024/02/08 12:48:47;;;;;;;1999.90;999.90;;;13.30;99.90;;;;;;5088626;28;20031;-73
2024/02/08 12:51:20;;;;;;;1999.90;999.90;;;13.20;99.90;;;;;;5085472;28;20023;-75
2024/02/08 12:54:04;;;;;;;1999.90;999.90;;;13.20;99.90;;;;;;5108612;28;20118;-77
2024/02/08 12:56:30;;;;;;;1999.90;999.90;;;13.30;99.90;;;;;;5096217;28;20040;-77
2024/02/08 12:59:04;;;;;;;1999.90;999.90;;;13.30;99.90;;;;;;5075809;28;20112;-75
2024/02/08 13:01:41;;;;;;;1999.90;999.90;;;13.30;99.90;;;;;;5093824;28;20024;-77
2024/02/08 13:04:07;;;;;;;1999.90;999.90;;;13.30;99.90;;;;;;5101741;28;20435;-77
2024/02/08 13:06:33;;;;;;;1999.90;999.90;;;13.30;99.90;;;;;;5105688;28;20055;-75
2024/02/08 13:09:25;;;;;;;1999.90;999.90;;;13.40;99.90;;;;;;5103260;27;20019;-75
2024/02/08 13:12:14;;;;;;;1999.90;999.90;;;13.40;99.90;;;;;;5090286;28;20023;-75
2024/02/08 13:14:56;;;;;;;1999.90;999.90;;;13.40;99.90;;;;;;5094041;28;20371;-75
2024/02/08 13:17:26;;;;;;;1999.90;999.90;;;13.40;99.90;;;;;;5112493;28;20050;-75
2024/02/08 13:19:55;;;;;;;1999.90;999.90;;;13.40;99.90;;;;;;5111768;28;20023;-77
2024/02/08 13:22:25;;;;;;;1999.90;999.90;;;13.40;99.90;;;;;;5092874;28;20055;-74
2024/02/08 13:24:52;;;;;;;1999.90;999.90;;;13.40;99.90;;;;;;5116880;28;20043;-75
2024/02/08 13:27:28;;;;;;;1999.90;999.90;;;13.40;99.90;;;;;;5104323;28;20023;-76
2024/02/08 13:30:01;;;;;;;1999.90;999.90;;;13.40;99.90;;;;;;5094057;28;20043;-75
2024/02/08 13:32:31;;;;;;;1999.90;999.90;;;13.30;99.90;;;;;;5111503;28;20035;-76
2024/02/08 13:34:58;;;;;;;1999.90;999.90;;;13.30;99.90;;;;;;5110786;27;20027;-76
2024/02/08 13:37:26;;;;;;;1999.90;999.90;;;13.20;99.90;;;;;;5114101;27;20038;-78
2024/02/08 13:40:05;;;;;;;1999.90;999.90;;;13.20;99.90;;;;;;5111545;28;20398;-76
2024/02/08 13:42:31;;;;;;;1999.90;999.90;;;13.20;99.90;;;;;;5109601;28;20031;-75
2024/02/08 13:44:57;;;;;;;1999.90;999.90;;;13.20;99.90;;;;;;5111596;27;20085;-75
2024/02/08 13:47:27;;;;;;;1999.90;999.90;;;13.20;99.90;;;;;;5103860;28;20020;-75
2024/02/08 13:49:54;;;;;;;1999.90;999.90;;;13.20;99.90;;;;;;5110198;28;20016;-74
2024/02/08 13:52:25;;;;;;;1999.90;999.90;;;13.20;99.90;;;;;;5107789;28;20024;-75
2024/02/08 13:54:52;;;;;;;1999.90;999.90;;;13.20;99.90;;;;;;5107211;27;20027;-75
2024/02/08 13:57:18;;;;;;;1999.90;999.90;;;13.30;99.90;;;;;;5108882;27;20050;-76
2024/02/08 13:59:48;;;;;;;1999.90;999.90;;;13.40;99.90;;;;;;5112043;27;20479;-76
2024/02/08 14:02:18;;;;;;;1999.90;999.90;;;13.60;99.90;;;;;;5105739;28;20024;-77
2024/02/08 14:04:50;;;;;;;1999.90;999.90;;;13.60;99.90;;;;;;5108061;28;20054;-74
2024/02/08 14:07:24;;;;;;;1999.90;999.90;;;13.70;99.90;;;;;;5093450;28;20039;-75
2024/02/08 14:09:58;;;;;;;1999.90;999.90;;;13.70;99.90;;;;;;5112104;27;20432;-76
2024/02/08 14:12:25;;;;;;;1999.90;999.90;;;13.80;99.90;;;;;;5105656;28;20046;-75
2024/02/08 14:14:53;;;;;;;1999.90;999.90;;;14.00;99.90;;;;;;5112903;27;20115;-75
2024/02/08 14:17:27;;;;;;;1999.90;999.90;;;14.10;99.90;;;;;;5105565;28;20059;-75
2024/02/08 14:19:55;;;;;;;1999.90;999.90;;;14.10;99.90;;;;;;5107861;27;20040;-75
2024/02/08 14:22:24;;;;;;;1999.90;999.90;;;14.20;99.90;;;;;;5102444;27;20112;-77
2024/02/08 14:24:53;;;;;;;1999.90;999.90;;;14.10;99.90;;;;;;5101293;27;21422;-75